FW2533 Weather Reports


Display with metric or nautical units.
time (UTC)temp
F
wind
direction
speed
MPH
gust
MPH
rain 1hr
in
rain 24hr
in
rain mn
in
humidity
%
barometer
mb
20210923122015 51 45 3.0 5.0 0.00 0.17 0.00 69 1019.3
20210923121015 50 23 2.0 3.0 0.00 0.17 0.00 69 1019.0
20210923120015 48 0.0 1.0 0.00 0.17 0.00 69 1018.9
20210923115017 48 0.0 1.0 0.00 0.17 0.00 69 1019.0
20210923114017 48 0.0 0.0 0.00 0.18 0.00 69 1018.7
20210923113017 48 0.0 0.0 0.00 0.18 0.00 69 1018.8
20210923112017 48 0.0 0.0 0.00 0.18 0.00 69 1018.8
20210923111017 48 0.0 0.0 0.00 0.18 0.00 69 1018.7
20210923110017 49 0.0 1.0 0.00 0.18 0.00 69 1018.5
20210923105017 49 0.0 2.0 0.00 0.18 0.00 68 1018.5
20210923104017 49 180 1.0 3.0 0.00 0.18 0.00 68 1018.5
20210923103017 49 180 1.0 4.0 0.00 0.18 0.00 68 1018.6
20210923102017 49 0.0 0.0 0.00 0.18 0.00 68 1018.6
20210923101017 49 0.0 0.0 0.00 0.18 0.00 68 1018.6
20210923100017 49 0.0 0.0 0.00 0.18 0.00 67 1018.5
20210923095016 50 0.0 0.0 0.00 0.18 0.00 67 1018.4
20210923094017 50 0.0 0.0 0.00 0.18 0.00 66 1018.2
20210923093017 50 0.0 0.0 0.00 0.18 0.00 65 1018.2
20210923092017 50 0.0 0.0 0.00 0.18 0.00 62 1018.1
20210923091017 50 0.0 1.0 0.00 0.18 0.00 62 1018.0
20210923090017 50 0.0 0.0 0.00 0.18 0.00 61 1017.9
20210923085017 51 0.0 0.0 0.00 0.18 0.00 60 1017.9
20210923084016 51 0.0 0.0 0.00 0.18 0.00 58 1017.9
20210923083017 51 0.0 1.0 0.00 0.18 0.00 58 1018.0
20210923082017 52 0.0 0.0 0.00 0.18 0.00 58 1018.1
20210923081017 53 0.0 1.0 0.00 0.18 0.00 60 1018.2
20210923080017 54 0.0 2.0 0.00 0.18 0.00 58 1018.0
20210923075017 54 23 1.0 2.0 0.00 0.18 0.00 58 1018.0
20210923074017 54 23 2.0 5.0 0.00 0.18 0.00 58 1018.0
20210923073016 53 0 3.0 7.0 0.00 0.18 0.00 59 1018.1
20210923072016 53 0 2.0 5.0 0.00 0.18 0.00 59 1018.3
20210923071016 53 23 2.0 4.0 0.00 0.18 0.00 60 1018.5
20210923070021 53 0.0 0.0 0.00 0.18 0.00 60 1018.5
20210923065016 54 0.0 1.0 0.00 0.18 0.00 60 1018.6
20210923064016 54 23 1.0 3.0 0.00 0.18 0.00 60 1018.6
20210923063017 54 23 2.0 4.0 0.00 0.18 0.00 59 1018.6
20210923062016 55 0 1.0 3.0 0.00 0.19 0.00 59 1018.6
20210923061016 55 23 3.0 5.0 0.00 0.19 0.00 58 1018.6
20210923060017 56 45 4.0 7.0 0.00 0.19 0.00 57 1018.9
20210923055018 56 23 5.0 10.0 0.00 0.19 0.00 56 1018.8
20210923054016 56 45 6.0 15.0 0.00 0.19 0.00 56 1018.7
20210923053016 57 0 4.0 10.0 0.00 0.19 0.00 56 1018.8
20210923052016 57 45 5.0 10.0 0.00 0.19 0.00 56 1018.8
20210923051017 56 45 5.0 11.0 0.00 0.19 0.00 56 1018.6
20210923050016 57 45 4.0 10.0 0.00 0.19 0.00 56 1018.6
20210923045016 56 0 3.0 6.0 0.00 0.19 0.00 57 1018.6
20210923044016 57 0 2.0 4.0 0.00 0.20 0.00 57 1018.5
20210923043016 57 23 3.0 5.0 0.00 0.20 0.00 56 1018.5
20210923042016 58 23 2.0 5.0 0.00 0.20 0.00 55 1018.5
20210923041016 58 45 4.0 8.0 0.00 0.20 0.00 54 1018.4
20210923040016 59 45 8.0 15.0 0.00 0.20 0.20 53 1018.4
20210923035017 59 45 5.0 10.0 0.00 0.20 0.20 53 1018.6
20210923034017 59 45 7.0 12.0 0.00 0.20 0.20 53 1018.6
20210923033017 59 45 6.0 11.0 0.00 0.20 0.20 55 1018.5
20210923032016 59 45 6.0 13.0 0.00 0.20 0.20 54 1018.3
20210923031016 59 45 7.0 13.0 0.00 0.20 0.20 55 1018.3
20210923030017 60 45 8.0 18.0 0.00 0.20 0.20 54 1018.3
20210923025016 60 23 8.0 15.0 0.00 0.20 0.20 54 1018.5
20210923024016 60 0 6.0 13.0 0.00 0.20 0.20 54 1018.6
20210923023017 60 23 6.0 14.0 0.00 0.20 0.20 55 1018.7
20210923022016 61 23 5.0 10.0 0.00 0.20 0.20 55 1018.6
20210923021016 61 45 7.0 12.0 0.00 0.20 0.20 55 1018.7
20210923020017 61 23 6.0 10.0 0.00 0.20 0.20 55 1018.5
20210923015016 62 0 5.0 10.0 0.00 0.20 0.20 54 1018.6
20210923014016 62 23 6.0 15.0 0.00 0.20 0.20 54 1018.5
20210923013017 62 23 8.0 13.0 0.00 0.20 0.20 53 1018.4
20210923012016 63 0 9.0 16.0 0.00 0.20 0.20 52 1018.3
20210923011016 63 0 7.0 13.0 0.00 0.20 0.20 53 1018.4
20210923010016 63 23 7.0 15.0 0.00 0.20 0.20 52 1018.2
20210923005016 64 23 8.0 15.0 0.00 0.20 0.20 52 1018.1
20210923004016 64 23 6.0 13.0 0.00 0.20 0.20 53 1017.9
20210923003016 64 45 4.0 8.0 0.00 0.20 0.20 53 1017.7
20210923002017 65 23 5.0 12.0 0.00 0.20 0.20 52 1017.6
20210923001016 65 315 4.0 10.0 0.00 0.20 0.20 51 1017.3
20210923000016 65 23 3.0 6.0 0.00 0.20 0.20 53 1017.3
20210922235016 66 45 5.0 9.0 0.00 0.20 0.20 53 1017.3
20210922234016 66 45 4.0 11.0 0.00 0.20 0.20 52 1017.2
20210922233016 67 0 3.0 8.0 0.00 0.20 0.20 51 1017.1
20210922232016 67 23 4.0 9.0 0.00 0.20 0.20 51 1016.9
20210922231016 68 23 3.0 7.0 0.00 0.20 0.20 50 1017.2
20210922230016 69 23 4.0 10.0 0.00 0.20 0.20 49 1017.0
20210922225016 69 293 5.0 12.0 0.00 0.20 0.20 49 1016.9
20210922224016 70 23 3.0 8.0 0.00 0.20 0.20 47 1016.8
20210922223016 71 45 3.0 10.0 0.00 0.20 0.20 47 1016.6
20210922222016 71 45 4.0 9.0 0.00 0.20 0.20 47 1016.5
20210922221016 71 0 5.0 13.0 0.00 0.20 0.20 46 1016.6
20210922220016 72 0 4.0 9.0 0.00 0.20 0.20 44 1016.5
20210922215016 71 338 3.0 9.0 0.00 0.20 0.20 45 1016.5
20210922214016 72 23 4.0 13.0 0.00 0.20 0.20 46 1016.5
20210922213016 72 338 6.0 13.0 0.00 0.20 0.20 44 1016.4
20210922212016 73 23 4.0 11.0 0.00 0.20 0.20 43 1016.3
20210922211016 73 315 5.0 12.0 0.00 0.20 0.20 43 1016.5
20210922210016 73 293 5.0 12.0 0.00 0.20 0.20 43 1016.4
20210922205016 72 293 5.0 11.0 0.00 0.20 0.20 45 1016.6
20210922204016 72 293 6.0 13.0 0.00 0.20 0.20 43 1016.6
20210922203016 72 23 7.0 18.0 0.00 0.20 0.20 43 1016.3
20210922202016 72 270 7.0 11.0 0.00 0.20 0.20 45 1016.6
20210922201016 71 338 6.0 13.0 0.00 0.20 0.20 45 1016.6
20210922200016 71 293 6.0 13.0 0.00 0.20 0.20 46 1016.5
20210922195016 71 315 5.0 10.0 0.00 0.20 0.20 46 1016.8
20210922194016 71 315 6.0 12.0 0.00 0.20 0.20 47 1016.7
20210922193016 71 293 5.0 11.0 0.00 0.20 0.20 48 1016.6
20210922192015 72 338 6.0 12.0 0.00 0.20 0.20 46 1016.6
20210922191016 71 270 5.0 9.0 0.00 0.20 0.20 48 1016.5
20210922190016 70 338 3.0 8.0 0.00 0.20 0.20 50 1016.7
20210922185016 71 315 4.0 9.0 0.00 0.20 0.20 49 1016.5
20210922184015 72 23 7.0 14.0 0.00 0.20 0.20 47 1016.7
20210922183016 72 270 8.0 14.0 0.00 0.20 0.20 48 1016.8
20210922182016 71 315 6.0 12.0 0.00 0.20 0.20 47 1016.8
20210922181015 71 270 6.0 11.0 0.00 0.20 0.20 47 1016.9
20210922180016 72 338 5.0 9.0 0.00 0.20 0.20 49 1017.0
20210922175016 72 315 5.0 11.0 0.00 0.20 0.20 48 1017.3
20210922174015 71 315 4.0 14.0 0.00 0.20 0.20 50 1017.2
20210922173015 71 293 7.0 15.0 0.00 0.20 0.20 47 1017.4
20210922172016 71 315 5.0 13.0 0.00 0.20 0.20 50 1017.4
20210922171016 71 315 7.0 14.0 0.00 0.20 0.20 48 1017.3
20210922170016 70 23 5.0 10.0 0.00 0.20 0.20 54 1017.3
20210922165015 70 45 4.0 9.0 0.00 0.20 0.20 57 1017.4
20210922164015 68 45 3.0 6.0 0.00 0.20 0.20 57 1017.5
20210922163015 67 45 4.0 11.0 0.00 0.20 0.20 58 1017.7
20210922162015 67 45 5.0 10.0 0.00 0.20 0.20 59 1017.8
20210922161015 67 68 9.0 16.0 0.00 0.20 0.20 58 1017.8
20210922160015 67 45 6.0 11.0 0.00 0.20 0.20 60 1017.7
20210922155015 66 45 6.0 9.0 0.00 0.20 0.20 60 1017.6
20210922154015 65 45 5.0 11.0 0.00 0.20 0.20 60 1017.6
20210922153015 65 23 5.0 9.0 0.00 0.20 0.20 62 1017.5
20210922152015 64 45 5.0 9.0 0.00 0.20 0.20 61 1017.6
20210922151015 64 23 5.0 9.0 0.00 0.20 0.20 62 1017.7
20210922150016 64 23 5.0 11.0 0.00 0.20 0.20 62 1017.6
20210922145515 64 23 4.0 10.0 0.00 0.20 0.20 62 1017.7
20210922144515 64 45 6.0 13.0 0.00 0.20 0.20 62 1017.6
20210922143515 64 23 5.0 14.0 0.00 0.20 0.20 62 1017.6
20210922143015 64 23 7.0 17.0 0.00 0.20 0.20 61 1017.5
20210922142515 64 23 9.0 19.0 0.00 0.20 0.20 61 1017.7
20210922141515 65 23 9.0 16.0 0.00 0.20 0.20 62 1017.5
20210922141015 65 0 7.0 15.0 0.00 0.20 0.20 62 1017.6
20210922140015 66 23 6.0 14.0 0.00 0.20 0.20 62 1017.3
20210922135015 66 23 5.0 13.0 0.01 0.20 0.20 63 1017.0
20210922134015 67 23 5.0 13.0 0.06 0.20 0.20 63 1016.8
20210922133015 67 23 6.0 14.0 0.17 0.20 0.20 63 1016.6
20210922132015 67 315 4.0 10.0 0.17 0.20 0.20 63 1016.2
20210922131015 67 315 5.0 13.0 0.17 0.20 0.20 63 1015.9
20210922130015 68 315 8.0 15.0 0.17 0.20 0.20 63 1016.1
20210922125015 68 338 6.0 13.0 0.16 0.19 0.19 64 1015.7
20210922124015 69 338 6.0 22.0 0.12 0.14 0.14 64 1015.6
20210922123017 71 0.0 0.0 0.01 0.03 0.03 64 1015.0